Time;durP1;ratioP1;P1;durP2;ratioP2;P2;SDS_P1;SDS_P2;PMS_P1;PMS_P2;Temp;Humidity;BMP_temperature;BMP_pressure;BME280_temperature;BME280_humidity;BME280_pressure;Samples;Min_cycle;Max_cycle;Signal;HPM_P1;HPM_P2
2022/12/26 00:01:49;;;;;;;35.10;13.82;;;;;;;4.06;70.77;94806.16;6166122;23;20040;-85
2022/12/26 00:04:16;;;;;;;32.85;12.60;;;;;;;4.07;70.20;94811.19;6166268;23;20180;-86
2022/12/26 00:06:41;;;;;;;22.83;11.52;;;;;;;4.04;70.14;94811.66;6165968;23;20029;-85
2022/12/26 00:09:07;;;;;;;23.40;11.40;;;;;;;4.00;70.21;94807.94;6140419;23;19997;-85
2022/12/26 00:11:34;;;;;;;24.25;10.70;;;;;;;4.01;70.13;94804.25;6166222;23;20013;-85
2022/12/26 00:14:02;;;;;;;24.15;8.68;;;;;;;4.00;69.99;94803.44;6165543;23;19994;-82
2022/12/26 00:16:28;;;;;;;22.40;9.57;;;;;;;3.98;69.76;94810.03;6165906;23;19993;-83
2022/12/26 00:18:54;;;;;;;20.35;8.57;;;;;;;3.98;69.96;94815.31;6165934;23;20009;-83
2022/12/26 00:21:21;;;;;;;17.42;8.85;;;;;;;3.95;69.85;94816.59;6165951;23;20001;-84
2022/12/26 00:23:46;;;;;;;16.50;8.10;;;;;;;3.96;70.17;94827.94;6165848;23;20004;-83
2022/12/26 00:26:17;;;;;;;19.23;8.70;;;;;;;3.93;70.14;94823.97;6166008;23;19997;-84
2022/12/26 00:28:43;;;;;;;18.13;8.82;;;;;;;3.89;70.47;94824.69;6139895;23;19997;-85
2022/12/26 00:31:17;;;;;;;19.80;8.98;;;;;;;3.91;70.42;94820.78;6165868;23;20008;-83
2022/12/26 00:33:43;;;;;;;19.63;8.35;;;;;;;3.90;70.27;94826.28;6165894;23;19993;-85
2022/12/26 00:36:12;;;;;;;21.42;9.05;;;;;;;3.88;70.53;94828.38;6165753;23;20028;-82
2022/12/26 00:38:39;;;;;;;23.05;10.32;;;;;;;3.87;70.74;94826.78;6165722;23;20069;-82
2022/12/26 00:41:05;;;;;;;25.38;9.23;;;;;;;3.84;71.13;94825.44;6165323;23;20005;-75
2022/12/26 00:43:31;;;;;;;16.73;9.10;;;;;;;3.80;71.52;94817.22;6165139;23;19998;-86
2022/12/26 00:45:57;;;;;;;19.30;9.20;;;;;;;3.84;71.76;94819.38;6140433;23;20005;-88
2022/12/26 00:48:22;;;;;;;19.25;7.82;;;;;;;3.88;70.97;94825.75;6167065;23;20299;-86
2022/12/26 00:50:48;;;;;;;16.67;8.20;;;;;;;3.88;70.57;94825.75;6166169;23;19994;-87
2022/12/26 00:53:13;;;;;;;20.48;7.45;;;;;;;3.92;70.08;94826.84;6140083;23;20001;-86
2022/12/26 00:55:39;;;;;;;12.85;6.28;;;;;;;3.90;69.84;94823.66;6165994;23;20005;-87
2022/12/26 00:58:04;;;;;;;14.65;6.63;;;;;;;3.87;69.65;94832.88;6166182;23;20317;-82
2022/12/26 01:00:30;;;;;;;17.52;6.82;;;;;;;3.85;70.04;94837.59;6166164;23;20056;-81
2022/12/26 01:02:55;;;;;;;16.10;6.38;;;;;;;3.85;69.70;94828.84;6139791;23;20296;-82
2022/12/26 01:05:21;;;;;;;13.98;6.05;;;;;;;3.85;69.49;94821.75;6166175;23;19998;-88
2022/12/26 01:07:46;;;;;;;20.30;7.80;;;;;;;3.82;69.43;94841.50;6166090;23;20017;-90
2022/12/26 01:10:12;;;;;;;23.98;9.10;;;;;;;3.77;69.58;94830.91;6164630;23;19997;-81
2022/12/26 01:12:38;;;;;;;26.13;9.15;;;;;;;3.79;69.70;94842.00;6164380;23;20291;-88
2022/12/26 01:15:05;;;;;;;20.40;8.02;;;;;;;3.77;69.91;94844.09;6163639;23;20296;-89
2022/12/26 01:17:30;;;;;;;23.67;8.93;;;;;;;3.76;69.88;94834.56;6162917;23;20064;-80
2022/12/26 01:19:56;;;;;;;19.40;8.63;;;;;;;3.76;69.44;94844.31;6162218;23;20045;-82
2022/12/26 01:22:22;;;;;;;17.70;7.55;;;;;;;3.74;69.56;94844.56;6162196;23;19997;-80
2022/12/26 01:24:48;;;;;;;16.77;6.95;;;;;;;3.73;69.39;94855.38;6163762;23;20003;-82
2022/12/26 01:27:54;;;;;;;15.57;6.00;;;;;;;3.71;69.54;94873.28;6164197;23;20001;-82
2022/12/26 01:30:19;;;;;;;20.08;7.00;;;;;;;3.65;69.75;94869.78;6164139;23;20223;-82
2022/12/26 01:32:45;;;;;;;19.85;7.10;;;;;;;3.65;70.20;94856.59;6163663;23;20048;-82
2022/12/26 01:35:10;;;;;;;18.38;7.25;;;;;;;3.65;70.05;94871.63;6163638;23;20009;-82
2022/12/26 01:37:36;;;;;;;21.52;7.88;;;;;;;3.64;70.46;94870.00;6164725;23;20211;-82
2022/12/26 01:40:02;;;;;;;20.92;7.55;;;;;;;3.61;70.62;94864.19;6164750;23;20195;-82
2022/12/26 01:42:35;;;;;;;20.52;8.52;;;;;;;3.57;70.61;94857.03;6164160;23;20002;-83
2022/12/26 01:45:21;;;;;;;15.57;7.05;;;;;;;3.56;70.81;94847.50;6164304;23;20052;-83
2022/12/26 01:48:01;;;;;;;20.77;7.60;;;;;;;3.53;70.65;94853.28;6163848;23;20002;-82
2022/12/26 01:51:05;;;;;;;19.83;7.60;;;;;;;3.51;70.31;94842.97;6138642;23;20005;-82
2022/12/26 01:53:45;;;;;;;18.00;6.95;;;;;;;3.47;70.31;94841.06;6164226;23;20173;-82
2022/12/26 01:56:15;;;;;;;21.48;6.78;;;;;;;3.40;70.21;94843.91;6163412;23;20003;-82
2022/12/26 01:58:52;;;;;;;19.27;5.88;;;;;;;3.34;70.57;94837.75;6163048;23;20020;-83
2022/12/26 02:01:19;;;;;;;20.15;5.65;;;;;;;3.30;70.57;94839.28;6163038;23;20061;-83
2022/12/26 02:06:30;;;;;;;20.25;6.90;;;;;;;3.22;70.86;94831.78;6162850;23;20064;-82
2022/12/26 02:08:56;;;;;;;14.27;5.97;;;;;;;3.22;70.93;94837.06;6163143;23;20273;-82
2022/12/26 02:11:27;;;;;;;18.55;6.65;;;;;;;3.20;70.99;94831.25;6164589;23;20001;-83
2022/12/26 02:13:53;;;;;;;17.02;7.40;;;;;;;3.17;71.00;94829.06;6165190;23;20056;-82
2022/12/26 02:16:19;;;;;;;18.75;7.45;;;;;;;3.14;71.17;94829.56;6165247;23;20001;-81
2022/12/26 02:18:45;;;;;;;19.58;7.07;;;;;;;3.11;71.23;94819.50;6165041;23;20061;-81
2022/12/26 02:21:40;;;;;;;19.38;7.72;;;;;;;3.09;71.27;94821.59;6164912;23;20300;-82
2022/12/26 02:24:37;;;;;;;16.23;5.75;;;;;;;3.06;71.24;94812.34;6035633;23;20067;-81
2022/12/26 02:27:25;;;;;;;18.77;7.28;;;;;;;3.04;71.36;94818.88;6165022;23;20043;-82
2022/12/26 02:30:05;;;;;;;14.95;6.82;;;;;;;2.98;71.45;94818.81;6164893;23;20005;-81
2022/12/26 02:33:14;;;;;;;12.52;5.43;;;;;;;2.96;71.33;94809.56;6164840;23;20185;-81
2022/12/26 02:35:51;;;;;;;17.83;5.55;;;;;;;2.91;71.56;94812.94;6164553;23;20073;-81
2022/12/26 02:38:20;;;;;;;15.23;5.45;;;;;;;2.93;72.01;94816.13;6164785;23;20005;-80
2022/12/26 02:40:55;;;;;;;13.70;4.80;;;;;;;2.89;71.93;94820.28;6164757;23;20017;-81
2022/12/26 02:43:28;;;;;;;16.17;4.95;;;;;;;2.89;72.34;94820.28;6164730;23;20001;-81
2022/12/26 02:49:08;;;;;;;19.70;7.88;;;;;;;2.90;73.31;94819.22;6164941;23;20071;-80
2022/12/26 03:15:07;;;;;;;17.52;7.93;;;;;;;2.92;74.31;94816.34;6164792;23;20036;-82
2022/12/26 03:17:39;;;;;;;25.90;9.65;;;;;;;2.90;74.36;94811.31;6163781;23;20005;-82
2022/12/26 03:20:09;;;;;;;;;;;;;;;2.93;74.20;94815.28;6165195;23;20000;-82
2022/12/26 03:22:47;;;;;;;14.75;7.47;;;;;;;2.91;73.95;94823.47;6164656;23;19963;-82
2022/12/26 03:28:02;;;;;;;28.00;12.15;;;;;;;2.88;73.98;94828.41;6164768;23;20183;-82
2022/12/26 03:35:59;;;;;;;24.02;10.32;;;;;;;2.87;74.98;94832.88;6164691;23;20012;-81
2022/12/26 03:39:07;;;;;;;23.63;10.00;;;;;;;2.88;74.68;94833.66;6138618;23;20008;-82
2022/12/26 04:19:31;;;;;;;27.08;12.38;;;;;;;2.54;75.14;94839.72;6101146;23;20028;-82
2022/12/26 04:44:34;;;;;;;24.95;14.05;;;;;;;2.28;75.61;94841.13;6165874;23;20024;-81
2022/12/26 04:46:59;;;;;;;24.13;11.50;;;;;;;2.29;75.21;94841.94;6165592;23;20025;-82
2022/12/26 04:52:12;;;;;;;28.27;13.48;;;;;;;2.25;76.69;94844.22;6165581;23;20040;-82
2022/12/26 04:54:38;;;;;;;30.92;14.02;;;;;;;2.26;77.22;94856.38;6165621;23;19993;-82
2022/12/26 04:57:04;;;;;;;30.90;13.10;;;;;;;2.28;77.39;94856.09;6165640;23;20018;-82
2022/12/26 04:59:30;;;;;;;23.52;10.80;;;;;;;2.27;77.51;94854.53;6165156;23;20164;-81
2022/12/26 05:10:17;;;;;;;17.85;8.25;;;;;;;2.21;76.47;94854.41;6165571;23;20024;-81
2022/12/26 05:12:43;;;;;;;12.82;7.68;;;;;;;2.21;76.55;94851.78;6165534;23;20242;-81
2022/12/26 05:15:09;;;;;;;16.50;7.57;;;;;;;2.21;76.31;94856.25;6165491;23;20004;-81
2022/12/26 05:28:40;;;;;;;15.90;6.40;;;;;;;2.20;75.96;94880.97;6165727;23;20024;-81
2022/12/26 05:31:11;;;;;;;11.38;5.75;;;;;;;2.16;76.91;94890.38;6165426;23;20029;-81
2022/12/26 05:36:23;;;;;;;21.92;10.68;;;;;;;2.07;78.02;94897.03;6165563;23;20032;-81
2022/12/26 05:38:48;;;;;;;24.75;11.48;;;;;;;2.07;78.89;94889.13;6165393;23;19998;-82
2022/12/26 05:41:15;;;;;;;25.95;10.88;;;;;;;2.08;78.98;94878.38;6165192;23;20009;-81
2022/12/26 05:43:40;;;;;;;21.25;10.23;;;;;;;2.09;78.85;94885.22;6165123;23;20004;-82
2022/12/26 05:46:06;;;;;;;20.20;9.45;;;;;;;2.13;78.42;94881.09;6165102;23;20191;-82
2022/12/26 05:48:31;;;;;;;26.75;11.10;;;;;;;2.11;78.13;94872.66;6165207;23;20004;-81
2022/12/26 05:51:01;;;;;;;24.50;9.18;;;;;;;2.14;77.97;94871.41;6165201;23;19997;-82
2022/12/26 05:53:28;;;;;;;21.38;9.30;;;;;;;2.14;77.63;94879.28;6165244;23;19990;-82
2022/12/26 05:55:53;;;;;;;21.63;10.00;;;;;;;2.14;77.52;94879.28;6165765;23;20001;-81
2022/12/26 05:58:19;;;;;;;21.95;9.88;;;;;;;2.16;77.28;94880.63;6165148;23;20056;-81
2022/12/26 06:00:44;;;;;;;21.60;8.80;;;;;;;2.17;76.97;94882.22;6165119;23;20013;-82
2022/12/26 06:03:09;;;;;;;13.85;6.55;;;;;;;2.18;76.96;94880.41;6165068;23;20279;-82
2022/12/26 06:05:35;;;;;;;12.80;6.13;;;;;;;2.19;76.96;94884.63;6138953;23;20239;-81
2022/12/26 06:08:01;;;;;;;12.80;6.50;;;;;;;2.16;76.69;94878.00;6164953;23;20200;-82
2022/12/26 06:10:28;;;;;;;14.82;6.65;;;;;;;2.18;76.71;94880.41;6165098;23;20064;-81
2022/12/26 06:12:54;;;;;;;16.65;7.90;;;;;;;2.19;76.47;94876.72;6165266;23;20001;-82
2022/12/26 06:15:19;;;;;;;20.95;9.70;;;;;;;2.21;76.57;94888.63;6165069;23;20039;-82
2022/12/26 06:17:45;;;;;;;17.23;8.05;;;;;;;2.24;76.55;94886.53;6164831;23;20009;-82
2022/12/26 06:20:10;;;;;;;19.23;8.43;;;;;;;2.25;76.15;94888.94;6164846;23;19993;-82
2022/12/26 06:22:36;;;;;;;15.80;8.07;;;;;;;2.27;76.03;94897.41;6164892;23;20005;-81
2022/12/26 06:25:01;;;;;;;17.92;8.57;;;;;;;2.29;76.11;94899.81;6164725;23;20001;-81
2022/12/26 06:27:27;;;;;;;16.92;9.38;;;;;;;2.30;76.11;94901.38;6165009;23;20004;-81
2022/12/26 06:29:52;;;;;;;22.48;11.30;;;;;;;2.30;76.37;94906.66;6165134;23;20020;-81
2022/12/26 06:32:18;;;;;;;19.38;10.40;;;;;;;2.31;76.22;94897.75;6164629;23;19997;-81
2022/12/26 06:34:43;;;;;;;20.55;10.05;;;;;;;2.33;76.02;94900.94;6165009;23;20002;-82
2022/12/26 06:37:09;;;;;;;22.67;10.23;;;;;;;2.34;76.03;94902.50;6164824;23;20061;-81
2022/12/26 06:39:34;;;;;;;23.10;10.40;;;;;;;2.36;75.90;94905.72;6164816;23;20040;-82
2022/12/26 06:42:00;;;;;;;21.52;10.55;;;;;;;2.36;76.06;94896.00;6164708;23;20009;-81
2022/12/26 06:44:25;;;;;;;23.38;11.57;;;;;;;2.38;76.26;94909.72;6164486;23;19998;-80
2022/12/26 06:46:51;;;;;;;18.90;10.88;;;;;;;2.43;76.13;94897.69;6164960;23;20039;-81
2022/12/26 06:49:16;;;;;;;23.15;11.43;;;;;;;2.45;76.17;94900.88;6164896;23;20004;-82
2022/12/26 06:51:43;;;;;;;24.45;12.55;;;;;;;2.44;76.16;94897.44;6164710;23;20044;-81
2022/12/26 06:54:09;;;;;;;24.38;12.65;;;;;;;2.45;77.07;94903.53;6164682;23;19998;-81
2022/12/26 06:56:37;;;;;;;31.48;12.40;;;;;;;2.45;77.25;94914.84;6164740;23;19998;-81
2022/12/26 06:59:04;;;;;;;28.35;11.98;;;;;;;2.49;77.57;94920.44;6164623;23;20288;-81
2022/12/26 07:01:32;;;;;;;35.42;14.32;;;;;;;2.52;77.46;94912.03;6164854;23;20101;-82
2022/12/26 07:03:58;;;;;;;34.90;14.15;;;;;;;2.56;77.65;94919.22;6164680;23;20232;-82
2022/12/26 07:06:36;;;;;;;34.55;13.45;;;;;;;2.62;77.43;94920.13;6164870;23;20203;-80
2022/12/26 07:09:06;;;;;;;31.27;14.38;;;;;;;2.68;77.45;94923.66;6138614;23;20005;-82
2022/12/26 07:11:35;;;;;;;26.48;14.20;;;;;;;2.75;77.23;94926.94;6164366;23;20198;-82
2022/12/26 07:14:01;;;;;;;29.05;15.23;;;;;;;2.83;77.12;94931.81;6164735;23;20384;-82
2022/12/26 07:16:27;;;;;;;29.38;14.50;;;;;;;2.87;76.87;94932.94;6164674;23;19999;-82
2022/12/26 07:18:54;;;;;;;33.08;14.43;;;;;;;2.94;76.87;94936.19;6164712;23;20002;-81
2022/12/26 07:21:20;;;;;;;33.80;16.02;;;;;;;3.01;76.82;94934.22;6164940;23;20195;-82
2022/12/26 07:23:45;;;;;;;31.15;14.57;;;;;;;3.08;76.67;94933.28;6166011;23;20020;-82
2022/12/26 07:26:11;;;;;;;36.15;16.80;;;;;;;3.16;76.38;94932.88;6166402;23;20086;-82
2022/12/26 07:28:37;;;;;;;36.10;15.70;;;;;;;3.24;76.07;94937.75;6140143;23;20350;-81
2022/12/26 07:31:03;;;;;;;37.83;16.58;;;;;;;3.30;76.04;94933.34;6166329;23;19998;-81
2022/12/26 07:33:29;;;;;;;33.03;17.23;;;;;;;3.37;75.87;94929.50;6166463;23;20004;-81
2022/12/26 07:36:02;;;;;;;36.85;18.50;;;;;;;3.46;75.78;94935.16;6166622;23;20056;-80
2022/12/26 07:38:27;;;;;;;37.90;16.35;;;;;;;3.54;75.75;94926.03;6166326;23;20291;-81
2022/12/26 07:40:56;;;;;;;37.50;18.08;;;;;;;3.63;75.44;94929.88;6166206;23;20008;-82
2022/12/26 07:43:25;;;;;;;39.50;16.13;;;;;;;3.69;75.75;94923.63;6166346;23;20199;-81
2022/12/26 07:45:51;;;;;;;38.58;16.50;;;;;;;3.78;75.63;94924.00;6166401;23;20009;-81
2022/12/26 07:48:16;;;;;;;46.90;20.00;;;;;;;3.89;75.55;94919.63;6166348;23;20220;-82
2022/12/26 07:50:45;;;;;;;39.85;19.80;;;;;;;3.98;75.52;94923.44;6166331;23;20063;-82
2022/12/26 07:53:12;;;;;;;44.03;20.52;;;;;;;4.04;75.37;94914.56;6166489;23;20009;-82
2022/12/26 07:55:38;;;;;;;38.85;19.95;;;;;;;4.06;75.33;94917.75;6166235;23;20032;-81
2022/12/26 07:58:03;;;;;;;37.45;17.27;;;;;;;4.10;75.70;94915.41;6166438;23;20002;-82
2022/12/26 08:00:29;;;;;;;37.38;17.95;;;;;;;4.15;75.50;94924.19;6166221;23;20326;-81
2022/12/26 08:02:54;;;;;;;37.00;16.42;;;;;;;4.25;75.56;94927.97;6166111;23;20027;-81
2022/12/26 08:05:19;;;;;;;31.75;17.73;;;;;;;4.24;76.00;94924.56;6166114;23;20001;-81
2022/12/26 08:07:47;;;;;;;32.95;16.65;;;;;;;4.28;76.06;94914.31;6165928;23;20014;-81
2022/12/26 08:10:12;;;;;;;32.47;16.15;;;;;;;4.34;75.61;94915.97;6166180;23;20340;-82
2022/12/26 08:12:38;;;;;;;30.08;14.57;;;;;;;4.39;75.30;94923.91;6166058;23;20004;-82
2022/12/26 08:15:03;;;;;;;43.03;15.02;;;;;;;4.41;75.13;94917.34;6165940;23;20002;-81
2022/12/26 08:17:31;;;;;;;37.03;15.18;;;;;;;4.42;75.15;94924.22;6166049;23;20004;-82
2022/12/26 08:19:57;;;;;;;31.92;15.60;;;;;;;4.48;74.91;94919.81;6165823;23;20007;-81
2022/12/26 08:22:22;;;;;;;31.63;15.73;;;;;;;4.52;74.67;94923.53;6165723;23;19997;-82
2022/12/26 08:24:48;;;;;;;29.42;13.77;;;;;;;4.59;74.31;94931.25;6165820;23;20303;-81
2022/12/26 08:27:14;;;;;;;31.48;14.73;;;;;;;4.63;74.24;94937.63;6166072;23;20031;-81
2022/12/26 08:29:40;;;;;;;32.13;14.30;;;;;;;4.68;74.36;94942.16;6165995;23;20072;-81
2022/12/26 08:32:05;;;;;;;35.17;16.08;;;;;;;4.72;74.11;94937.97;6165922;23;19998;-82
2022/12/26 08:34:32;;;;;;;34.88;16.73;;;;;;;4.67;74.30;94935.31;6165315;23;20001;-81
2022/12/26 08:36:58;;;;;;;28.48;16.13;;;;;;;4.71;74.17;94939.03;6165668;23;19997;-81
2022/12/26 08:39:23;;;;;;;27.88;16.23;;;;;;;4.76;74.19;94925.88;6165863;23;20002;-81
2022/12/26 08:41:49;;;;;;;33.63;16.65;;;;;;;4.85;73.97;94924.38;6165834;23;20004;-81
2022/12/26 08:44:16;;;;;;;39.97;15.68;;;;;;;4.88;73.63;94929.16;6165787;23;20036;-81
2022/12/26 08:46:42;;;;;;;30.13;15.25;;;;;;;4.96;73.50;94922.63;6165748;23;19997;-81
2022/12/26 08:49:08;;;;;;;37.13;16.27;;;;;;;5.01;73.43;94910.25;6165613;23;20012;-81
2022/12/26 08:51:33;;;;;;;30.88;15.90;;;;;;;5.04;73.45;94916.88;6165694;23;19993;-81
2022/12/26 08:53:59;;;;;;;36.83;15.93;;;;;;;5.13;73.48;94911.91;6165561;23;20005;-82
2022/12/26 08:56:26;;;;;;;35.15;18.08;;;;;;;5.21;73.18;94900.88;6165466;23;20056;-82
2022/12/26 08:58:51;;;;;;;32.63;17.17;;;;;;;5.25;73.05;94898.53;6165547;23;20001;-82
2022/12/26 09:01:20;;;;;;;33.03;16.33;;;;;;;5.33;73.12;94901.53;6165689;23;20004;-81
2022/12/26 09:03:46;;;;;;;36.65;16.83;;;;;;;5.43;72.89;94901.59;6139581;23;20072;-82
2022/12/26 09:06:13;;;;;;;38.70;16.90;;;;;;;5.48;72.31;94897.38;6165664;23;20017;-81
2022/12/26 09:08:39;;;;;;;28.17;14.90;;;;;;;5.60;71.89;94892.69;6165568;23;20061;-81
2022/12/26 09:11:11;;;;;;;36.88;14.90;;;;;;;5.66;71.08;94899.59;6165466;23;20001;-82
2022/12/26 09:13:36;;;;;;;33.25;18.20;;;;;;;5.74;70.64;94898.28;6165525;23;19997;-82
2022/12/26 09:16:15;;;;;;;29.52;14.35;;;;;;;5.84;70.39;94895.69;6139414;23;20303;-82
2022/12/26 09:18:42;;;;;;;34.15;15.25;;;;;;;5.86;70.25;94898.88;6165443;23;20044;-81
2022/12/26 09:21:10;;;;;;;34.72;15.43;;;;;;;5.93;70.27;94893.38;6165298;23;20020;-81
2022/12/26 09:23:37;;;;;;;34.00;18.88;;;;;;;5.97;69.87;94900.56;6165146;23;20021;-82
2022/12/26 09:26:12;;;;;;;31.98;17.92;;;;;;;5.90;69.40;94892.03;6165386;23;20001;-82
2022/12/26 09:28:37;;;;;;;29.00;15.80;;;;;;;5.93;69.73;94894.16;6165239;23;20065;-82
2022/12/26 09:31:05;;;;;;;35.70;17.08;;;;;;;6.05;69.30;94893.19;6139300;23;20001;-81
2022/12/26 09:33:37;;;;;;;31.17;15.18;;;;;;;6.21;68.21;94890.34;6165279;23;20184;-81
2022/12/26 09:36:25;;;;;;;29.58;14.60;;;;;;;6.30;67.49;94895.91;6165338;23;20001;-81
2022/12/26 09:38:51;;;;;;;31.73;14.90;;;;;;;6.36;67.03;94881.63;6139310;23;20017;-81
2022/12/26 09:41:31;;;;;;;33.20;14.52;;;;;;;6.44;66.95;94888.28;6139114;23;20005;-83
2022/12/26 09:44:14;;;;;;;34.17;13.63;;;;;;;6.52;66.92;94882.47;6165183;23;20013;-81
2022/12/26 09:46:47;;;;;;;29.38;13.35;;;;;;;6.57;66.72;94884.34;6164728;23;20318;-82
2022/12/26 09:49:20;;;;;;;32.03;15.68;;;;;;;6.60;66.00;94881.97;6165016;23;20001;-81
2022/12/26 09:52:00;;;;;;;26.58;14.10;;;;;;;6.58;65.53;94881.44;6165249;23;20064;-81
2022/12/26 09:54:29;;;;;;;29.25;15.02;;;;;;;6.61;65.86;94875.63;6165033;23;20008;-82
2022/12/26 09:56:55;;;;;;;34.20;14.52;;;;;;;6.76;65.13;94872.19;6164936;23;20001;-81
2022/12/26 09:59:24;;;;;;;31.38;15.57;;;;;;;6.82;64.72;94875.63;6165177;23;20020;-82
2022/12/26 10:01:51;;;;;;;29.45;14.55;;;;;;;6.88;64.71;94876.41;6165138;23;20001;-81
2022/12/26 10:04:25;;;;;;;32.45;16.95;;;;;;;6.99;64.02;94868.22;6164815;23;20025;-82
2022/12/26 10:07:02;;;;;;;33.17;16.77;;;;;;;7.09;63.70;94864.75;6164990;23;20009;-81
2022/12/26 10:09:58;;;;;;;28.33;14.23;;;;;;;7.14;63.28;94867.41;6164866;23;20001;-82
2022/12/26 10:12:45;;;;;;;28.90;14.20;;;;;;;7.23;63.17;94860.50;6165402;23;20006;-82
2022/12/26 10:15:40;;;;;;;31.83;15.63;;;;;;;7.33;63.14;94854.41;6164942;23;20044;-82
2022/12/26 10:18:14;;;;;;;24.33;11.82;;;;;;;7.37;62.21;94850.16;6164989;23;20060;-82
2022/12/26 10:21:14;;;;;;;24.48;12.75;;;;;;;7.38;61.53;94846.44;6164930;23;20005;-82
2022/12/26 10:23:44;;;;;;;24.42;12.55;;;;;;;7.48;61.48;94840.31;6154148;23;20028;-82
2022/12/26 10:26:24;;;;;;;31.25;13.88;;;;;;;7.52;61.10;94840.56;6138763;23;19997;-82
2022/12/26 10:28:58;;;;;;;37.35;15.05;;;;;;;7.53;61.49;94842.16;6165138;23;20035;-82
2022/12/26 10:31:35;;;;;;;43.20;17.25;;;;;;;7.60;61.83;94834.72;6164964;23;20009;-81
2022/12/26 10:34:18;;;;;;;33.25;15.10;;;;;;;7.66;61.65;94840.81;6164824;23;19998;-82
2022/12/26 10:37:07;;;;;;;28.10;14.18;;;;;;;7.80;61.36;94837.31;6164963;23;20355;-82
2022/12/26 10:39:40;;;;;;;27.42;14.88;;;;;;;7.90;60.58;94830.38;6139247;23;20009;-82
2022/12/26 10:42:15;;;;;;;27.70;15.13;;;;;;;7.99;60.48;94832.16;6164333;23;19993;-82
2022/12/26 10:44:40;;;;;;;27.17;13.25;;;;;;;8.02;60.48;94831.63;6164519;23;20006;-82
2022/12/26 10:47:05;;;;;;;23.80;13.18;;;;;;;8.04;60.00;94832.16;6138696;23;20002;-82
2022/12/26 10:49:31;;;;;;;26.48;12.52;;;;;;;8.13;59.93;94829.72;6164595;23;20009;-82
2022/12/26 10:52:00;;;;;;;29.38;12.20;;;;;;;8.21;59.66;94817.75;6164606;23;19998;-81
2022/12/26 10:54:28;;;;;;;24.73;11.35;;;;;;;8.23;59.48;94827.00;6164972;23;20000;-82
2022/12/26 10:56:55;;;;;;;20.55;11.50;;;;;;;8.32;58.87;94815.81;6164898;23;20001;-83
2022/12/26 10:59:28;;;;;;;26.08;11.55;;;;;;;8.38;59.28;94825.34;6167076;23;19997;-83
2022/12/26 11:01:54;;;;;;;17.95;10.85;;;;;;;8.44;59.15;94811.75;6166501;23;20037;-83
2022/12/26 11:04:23;;;;;;;22.38;11.55;;;;;;;8.53;59.02;94811.19;6166658;23;19993;-83
2022/12/26 11:06:53;;;;;;;25.45;12.07;;;;;;;8.46;58.28;94814.16;6166411;23;20203;-81
2022/12/26 11:09:24;;;;;;;25.33;10.73;;;;;;;8.61;57.70;94813.28;6166670;23;20086;-82
2022/12/26 11:11:51;;;;;;;27.45;13.02;;;;;;;8.67;57.50;94816.66;6166832;23;20002;-83
2022/12/26 11:14:31;;;;;;;21.30;10.98;;;;;;;8.71;58.53;94802.56;6166488;23;20196;-83
2022/12/26 11:17:00;;;;;;;25.88;11.05;;;;;;;8.84;58.37;94809.09;6166635;23;20056;-82
2022/12/26 11:19:27;;;;;;;24.52;9.68;;;;;;;8.99;58.02;94793.00;6166315;23;20060;-82
2022/12/26 11:21:53;;;;;;;17.55;9.52;;;;;;;9.12;57.38;94790.75;6166489;23;19997;-83
2022/12/26 11:24:19;;;;;;;17.88;8.90;;;;;;;9.22;57.05;94788.03;6166330;23;20008;-83
2022/12/26 11:26:45;;;;;;;17.45;8.85;;;;;;;9.36;57.02;94788.97;6166483;23;20028;-83
2022/12/26 11:29:14;;;;;;;20.65;8.48;;;;;;;9.48;56.54;94791.19;6166420;23;20333;-83
2022/12/26 11:31:48;;;;;;;15.38;8.65;;;;;;;9.62;56.10;94778.00;6166455;23;20028;-83
2022/12/26 11:34:19;;;;;;;24.52;9.00;;;;;;;9.74;55.62;94774.94;6166024;23;20205;-82
2022/12/26 11:36:47;;;;;;;16.63;8.13;;;;;;;9.87;55.51;94784.09;6166445;23;20061;-82
2022/12/26 11:39:27;;;;;;;18.55;7.63;;;;;;;9.98;54.98;94773.03;6166324;23;20028;-82
2022/12/26 11:41:54;;;;;;;18.33;7.15;;;;;;;10.07;54.47;94783.06;6166556;23;19997;-83
2022/12/26 11:44:51;;;;;;;17.33;7.43;;;;;;;10.17;54.25;94780.25;6166313;23;20001;-83
2022/12/26 11:47:19;;;;;;;27.48;14.15;;;;;;;10.23;53.78;94771.91;6164141;23;20001;-83
2022/12/26 11:50:10;;;;;;;24.50;11.30;;;;;;;10.34;53.69;94763.78;6166368;23;20017;-82
2022/12/26 11:52:50;;;;;;;20.90;8.35;;;;;;;10.42;53.77;94763.94;6139996;23;20192;-82
2022/12/26 11:55:22;;;;;;;16.23;7.05;;;;;;;10.51;52.88;94753.41;6166387;23;20004;-83
2022/12/26 11:58:09;;;;;;;14.90;6.90;;;;;;;10.62;52.93;94764.69;6165953;23;20076;-83
2022/12/26 12:00:37;;;;;;;22.98;8.35;;;;;;;10.70;52.55;94761.38;6166054;23;20001;-81
2022/12/26 12:03:13;;;;;;;16.10;8.15;;;;;;;10.74;52.19;94753.59;6166249;23;20044;-83
2022/12/26 12:05:50;;;;;;;14.40;7.65;;;;;;;10.82;51.89;94750.25;6166135;23;20009;-83
2022/12/26 12:08:35;;;;;;;15.88;8.23;;;;;;;10.92;51.67;94746.63;6166079;23;20241;-83
2022/12/26 12:11:19;;;;;;;20.33;8.18;;;;;;;10.99;51.56;94742.50;6166079;23;20035;-82
2022/12/26 12:14:00;;;;;;;18.45;7.28;;;;;;;11.04;51.36;94746.94;6139936;23;20009;-82
2022/12/26 12:16:45;;;;;;;28.45;10.45;;;;;;;11.10;51.04;94739.66;6165886;23;20068;-82
2022/12/26 12:19:35;;;;;;;14.60;7.10;;;;;;;11.19;50.69;94735.22;6165926;23;20048;-82
2022/12/26 12:22:09;;;;;;;18.55;7.05;;;;;;;11.22;50.06;94734.63;6166144;23;20068;-83
2022/12/26 12:24:54;;;;;;;15.10;6.45;;;;;;;11.29;49.94;94732.34;6166166;23;20192;-82
2022/12/26 12:27:44;;;;;;;17.30;6.60;;;;;;;11.39;49.77;94734.03;6139918;23;20203;-83
2022/12/26 12:30:21;;;;;;;19.23;6.22;;;;;;;11.44;48.99;94739.28;6165769;23;20068;-83
2022/12/26 12:32:46;;;;;;;13.15;5.38;;;;;;;11.44;48.90;94742.75;6166006;23;20043;-83
2022/12/26 12:35:41;;;;;;;10.10;5.30;;;;;;;11.50;49.07;94738.09;6165788;23;20046;-82
2022/12/26 12:38:24;;;;;;;12.35;5.30;;;;;;;11.56;49.17;94736.09;6165499;23;20060;-83
2022/12/26 12:41:27;;;;;;;12.30;4.20;;;;;;;11.69;48.34;94739.88;6165769;23;20012;-83
2022/12/26 12:43:59;;;;;;;12.30;5.40;;;;;;;11.74;47.42;94745.09;6165646;23;19997;-83
2022/12/26 12:47:03;;;;;;;20.50;6.43;;;;;;;11.79;47.59;94734.34;6165882;23;20009;-82
2022/12/26 12:49:58;;;;;;;15.43;5.55;;;;;;;11.85;47.05;94736.59;6165628;23;20048;-82
2022/12/26 12:52:49;;;;;;;7.70;4.30;;;;;;;11.92;47.06;94743.44;6165927;23;20011;-83
2022/12/26 12:55:49;;;;;;;9.63;3.77;;;;;;;12.00;46.97;94740.06;6165831;23;20212;-82
2022/12/26 12:58:38;;;;;;;15.73;4.93;;;;;;;12.13;47.08;94738.44;6137899;23;20013;-82
2022/12/26 13:01:09;;;;;;;15.32;3.88;;;;;;;12.26;46.67;94740.28;6165306;23;20017;-82
2022/12/26 13:03:46;;;;;;;12.57;4.38;;;;;;;12.33;46.00;94729.19;6165586;23;20196;-82
2022/12/26 13:06:24;;;;;;;11.00;5.22;;;;;;;12.30;45.99;94743.16;6165356;23;20022;-82
2022/12/26 13:09:17;;;;;;;12.20;5.05;;;;;;;12.25;46.17;94741.38;6139709;23;19998;-82
2022/12/26 13:11:55;;;;;;;14.10;6.35;;;;;;;12.13;46.24;94731.22;6139391;23;19997;-82
2022/12/26 13:14:45;;;;;;;13.30;4.90;;;;;;;12.01;46.43;94741.66;6165324;23;20013;-82
2022/12/26 13:17:23;;;;;;;19.48;5.85;;;;;;;11.89;46.65;94731.47;6165371;23;20025;-82
2022/12/26 13:20:15;;;;;;;14.63;4.80;;;;;;;11.80;46.93;94736.69;6165124;23;20004;-82
2022/12/26 13:25:56;;;;;;;16.50;7.57;;;;;;;11.53;47.78;94742.84;6164920;23;20067;-82
2022/12/26 13:28:28;;;;;;;13.75;6.45;;;;;;;11.39;47.86;94748.16;6165365;23;20337;-82
2022/12/26 13:30:54;;;;;;;24.77;6.57;;;;;;;11.29;48.15;94739.56;6165310;23;20009;-82
2022/12/26 13:33:20;;;;;;;13.40;5.80;;;;;;;11.18;49.29;94734.41;6165443;23;20005;-82
2022/12/26 13:35:59;;;;;;;18.75;8.40;;;;;;;11.02;49.83;94739.25;6165322;23;20028;-82
2022/12/26 13:38:56;;;;;;;55.60;24.33;;;;;;;10.86;50.64;94731.81;6164749;23;20012;-82
2022/12/26 13:44:18;;;;;;;55.67;22.70;;;;;;;10.48;51.94;94727.31;6165224;23;20040;-81
2022/12/26 13:46:46;;;;;;;44.30;21.08;;;;;;;10.36;52.42;94735.78;6165134;23;20278;-82
2022/12/26 13:49:35;;;;;;;59.45;24.10;;;;;;;10.23;52.98;94734.59;6165014;23;20021;-82
2022/12/26 13:52:09;;;;;;;45.33;21.10;;;;;;;10.09;53.71;94738.28;6164986;23;20012;-81
2022/12/26 13:54:56;;;;;;;49.67;23.10;;;;;;;9.92;54.13;94744.13;6165042;23;19997;-82
2022/12/26 13:57:34;;;;;;;41.63;19.38;;;;;;;9.74;54.80;94743.78;6165016;23;19994;-82
2022/12/26 14:00:08;;;;;;;54.92;21.77;;;;;;;9.60;55.06;94738.38;6164861;23;20012;-82